Portada
Imágenes satélite Pronóstico 15 díasClimaPredicción Marítima Ciclones Rayo AeropuertosFAQ Noticias Acerca
El tiempo : Europa África América del Norte América del Sur Asia Australia-Oceanía Otros
Idiomas Contacto

Madrid, España

Barajas

latitud: 40-27N, longitud: 003-33W, altitud: 609 m


METAR: LEMD 230930Z 00000KT CAVOK 28/09 Q1014 NOSIG
short-TAF: expira (50064 horas)
long-TAF: LEMD 230500Z 2306/2412 VRB04KT CAVOK TX37/2316Z TN19/2306Z TEMPO 2311/2320 23010KT

Hora: 12:00 (10:00 UTC)

Observación

El informe se hizo hace 30 minutos, a las 09:30 UTC  
Viento calma
Temperatura 28°C
Humedad 30%
Presión 1014 hPa
Visibilidad 10 km o más
sin nubes por debajo de 1500 m y sin presencia de cumulonimbus.

Cambiar las unidades

Pronóstico

El informe se hizo hace 4 horas y 33 minutos, a las 05:27 UTC  
Pronóstico válido del 23 a las 06 UTC al 24 a las 12 UTC
Viento 04 kt con dirección variable
Visibilidad 10 km o más
sin nubes por debajo de 1500 m y sin presencia de cumulonimbus.
Temporalmente
del 23 a las 11 UTC al 23 a las 20 UTC
Viento 10 kt del suroeste
La información que se ofrece en estas páginas está sujeta a una cláusula de exención de responsabilidad
El tiempo : Europa África América del Norte América del Sur Asia Australia-Oceanía Otros
Imágenes satélite Pronóstico 15 díasClimaPredicción Marítima Ciclones Rayo AeropuertosFAQ Idiomas Contacto Noticias Acerca